sensor_id;sensor_type;location;lat;lon;timestamp;P1;durP1;ratioP1;P2;durP2;ratioP2
21843;SDS011;11084;52.482;9.108;2023-02-28T00:01:18;0.70;;;0.70;;
21843;SDS011;11084;52.482;9.108;2023-02-28T00:03:44;1.97;;;0.90;;
21843;SDS011;11084;52.482;9.108;2023-02-28T00:06:10;1.37;;;1.27;;
21843;SDS011;11084;52.482;9.108;2023-02-28T00:08:37;1.27;;;1.00;;
21843;SDS011;11084;52.482;9.108;2023-02-28T00:11:08;1.17;;;0.83;;
21843;SDS011;11084;52.482;9.108;2023-02-28T00:13:38;0.70;;;0.70;;
21843;SDS011;11084;52.482;9.108;2023-02-28T00:16:11;0.80;;;0.80;;
21843;SDS011;11084;52.482;9.108;2023-02-28T00:18:40;0.77;;;0.63;;
21843;SDS011;11084;52.482;9.108;2023-02-28T00:21:07;3.57;;;0.87;;
21843;SDS011;11084;52.482;9.108;2023-02-28T00:23:33;1.90;;;0.97;;
21843;SDS011;11084;52.482;9.108;2023-02-28T00:25:59;0.77;;;0.73;;
21843;SDS011;11084;52.482;9.108;2023-02-28T00:28:25;0.73;;;0.73;;
21843;SDS011;11084;52.482;9.108;2023-02-28T00:30:51;0.60;;;0.60;;
21843;SDS011;11084;52.482;9.108;2023-02-28T00:33:18;1.03;;;0.70;;
21843;SDS011;11084;52.482;9.108;2023-02-28T00:35:44;0.97;;;0.90;;
21843;SDS011;11084;52.482;9.108;2023-02-28T00:38:14;1.77;;;1.63;;
21843;SDS011;11084;52.482;9.108;2023-02-28T00:40:43;1.70;;;1.00;;
21843;SDS011;11084;52.482;9.108;2023-02-28T00:43:10;1.17;;;0.90;;
21843;SDS011;11084;52.482;9.108;2023-02-28T00:45:36;1.00;;;0.90;;
21843;SDS011;11084;52.482;9.108;2023-02-28T00:48:03;1.07;;;0.70;;
21843;SDS011;11084;52.482;9.108;2023-02-28T00:50:29;0.57;;;0.57;;
21843;SDS011;11084;52.482;9.108;2023-02-28T00:52:56;0.93;;;0.73;;
21843;SDS011;11084;52.482;9.108;2023-02-28T00:55:22;0.30;;;0.30;;
21843;SDS011;11084;52.482;9.108;2023-02-28T00:57:48;0.50;;;0.50;;
21843;SDS011;11084;52.482;9.108;2023-02-28T01:00:14;3.70;;;0.70;;
21843;SDS011;11084;52.482;9.108;2023-02-28T01:02:41;1.57;;;0.90;;
21843;SDS011;11084;52.482;9.108;2023-02-28T01:05:07;0.43;;;0.43;;
21843;SDS011;11084;52.482;9.108;2023-02-28T01:07:33;0.97;;;0.80;;
21843;SDS011;11084;52.482;9.108;2023-02-28T01:09:59;0.63;;;0.63;;
21843;SDS011;11084;52.482;9.108;2023-02-28T01:12:25;0.93;;;0.93;;
21843;SDS011;11084;52.482;9.108;2023-02-28T01:14:52;0.40;;;0.40;;
21843;SDS011;11084;52.482;9.108;2023-02-28T01:17:20;0.97;;;0.87;;
21843;SDS011;11084;52.482;9.108;2023-02-28T01:19:46;5.53;;;0.50;;
21843;SDS011;11084;52.482;9.108;2023-02-28T01:22:12;2.83;;;1.87;;
21843;SDS011;11084;52.482;9.108;2023-02-28T01:24:41;3.73;;;0.70;;
21843;SDS011;11084;52.482;9.108;2023-02-28T01:27:07;1.03;;;1.00;;
21843;SDS011;11084;52.482;9.108;2023-02-28T01:29:36;1.73;;;1.10;;
21843;SDS011;11084;52.482;9.108;2023-02-28T01:32:02;0.90;;;0.80;;
21843;SDS011;11084;52.482;9.108;2023-02-28T01:34:28;1.03;;;0.60;;
21843;SDS011;11084;52.482;9.108;2023-02-28T01:36:54;1.37;;;1.27;;
21843;SDS011;11084;52.482;9.108;2023-02-28T01:39:20;1.13;;;1.03;;
21843;SDS011;11084;52.482;9.108;2023-02-28T01:41:46;1.23;;;1.13;;
21843;SDS011;11084;52.482;9.108;2023-02-28T01:47:32;0.57;;;0.57;;
21843;SDS011;11084;52.482;9.108;2023-02-28T01:50:02;1.20;;;0.90;;
21843;SDS011;11084;52.482;9.108;2023-02-28T01:52:35;0.50;;;0.50;;
21843;SDS011;11084;52.482;9.108;2023-02-28T01:55:02;0.87;;;0.87;;
21843;SDS011;11084;52.482;9.108;2023-02-28T01:57:32;1.33;;;0.97;;
21843;SDS011;11084;52.482;9.108;2023-02-28T02:00:15;0.80;;;0.80;;
21843;SDS011;11084;52.482;9.108;2023-02-28T02:02:49;1.93;;;1.37;;
21843;SDS011;11084;52.482;9.108;2023-02-28T02:05:24;0.67;;;0.67;;
21843;SDS011;11084;52.482;9.108;2023-02-28T02:11:00;0.77;;;0.77;;
21843;SDS011;11084;52.482;9.108;2023-02-28T02:18:54;2.67;;;1.67;;
21843;SDS011;11084;52.482;9.108;2023-02-28T02:31:10;2.57;;;1.33;;
21843;SDS011;11084;52.482;9.108;2023-02-28T02:34:10;0.80;;;0.80;;
21843;SDS011;11084;52.482;9.108;2023-02-28T02:40:13;0.80;;;0.80;;
21843;SDS011;11084;52.482;9.108;2023-02-28T02:42:47;4.27;;;0.77;;
21843;SDS011;11084;52.482;9.108;2023-02-28T02:45:54;1.63;;;0.83;;
21843;SDS011;11084;52.482;9.108;2023-02-28T02:48:25;0.70;;;0.70;;
21843;SDS011;11084;52.482;9.108;2023-02-28T02:51:00;2.67;;;0.97;;
21843;SDS011;11084;52.482;9.108;2023-02-28T02:53:40;15.17;;;1.17;;
21843;SDS011;11084;52.482;9.108;2023-02-28T02:56:17;0.83;;;0.83;;
21843;SDS011;11084;52.482;9.108;2023-02-28T02:58:45;0.77;;;0.77;;
21843;SDS011;11084;52.482;9.108;2023-02-28T03:01:15;3.57;;;1.47;;
21843;SDS011;11084;52.482;9.108;2023-02-28T03:04:16;1.13;;;1.07;;
21843;SDS011;11084;52.482;9.108;2023-02-28T03:06:42;1.10;;;1.00;;
21843;SDS011;11084;52.482;9.108;2023-02-28T03:09:08;1.47;;;1.37;;
21843;SDS011;11084;52.482;9.108;2023-02-28T03:11:38;1.37;;;1.27;;
21843;SDS011;11084;52.482;9.108;2023-02-28T03:17:08;2.03;;;0.73;;
21843;SDS011;11084;52.482;9.108;2023-02-28T03:23:10;2.87;;;1.57;;
21843;SDS011;11084;52.482;9.108;2023-02-28T03:25:56;2.03;;;1.30;;
21843;SDS011;11084;52.482;9.108;2023-02-28T03:31:58;0.97;;;0.77;;
21843;SDS011;11084;52.482;9.108;2023-02-28T03:34:46;11.13;;;1.23;;
21843;SDS011;11084;52.482;9.108;2023-02-28T03:37:22;1.23;;;1.13;;
21843;SDS011;11084;52.482;9.108;2023-02-28T03:39:56;1.30;;;1.17;;
21843;SDS011;11084;52.482;9.108;2023-02-28T03:42:31;1.07;;;0.93;;
21843;SDS011;11084;52.482;9.108;2023-02-28T03:45:03;2.10;;;0.93;;
21843;SDS011;11084;52.482;9.108;2023-02-28T03:47:38;0.70;;;0.70;;
21843;SDS011;11084;52.482;9.108;2023-02-28T03:50:13;0.90;;;0.90;;
21843;SDS011;11084;52.482;9.108;2023-02-28T03:53:02;1.37;;;1.00;;
21843;SDS011;11084;52.482;9.108;2023-02-28T03:55:57;0.60;;;0.60;;
21843;SDS011;11084;52.482;9.108;2023-02-28T04:01:23;0.83;;;0.73;;
21843;SDS011;11084;52.482;9.108;2023-02-28T04:04:17;0.87;;;0.87;;
21843;SDS011;11084;52.482;9.108;2023-02-28T04:06:44;0.90;;;0.90;;
21843;SDS011;11084;52.482;9.108;2023-02-28T04:09:11;0.67;;;0.60;;
21843;SDS011;11084;52.482;9.108;2023-02-28T04:11:44;0.97;;;0.97;;
21843;SDS011;11084;52.482;9.108;2023-02-28T04:14:16;1.50;;;1.10;;
21843;SDS011;11084;52.482;9.108;2023-02-28T04:16:42;4.03;;;1.40;;
21843;SDS011;11084;52.482;9.108;2023-02-28T04:19:09;0.40;;;0.40;;
21843;SDS011;11084;52.482;9.108;2023-02-28T04:21:39;0.67;;;0.67;;
21843;SDS011;11084;52.482;9.108;2023-02-28T04:24:09;1.83;;;1.40;;
21843;SDS011;11084;52.482;9.108;2023-02-28T04:26:43;1.33;;;1.23;;
21843;SDS011;11084;52.482;9.108;2023-02-28T04:29:13;1.53;;;1.43;;
21843;SDS011;11084;52.482;9.108;2023-02-28T04:31:48;6.53;;;1.77;;
21843;SDS011;11084;52.482;9.108;2023-02-28T04:34:14;0.70;;;0.70;;
21843;SDS011;11084;52.482;9.108;2023-02-28T04:36:43;0.73;;;0.73;;
21843;SDS011;11084;52.482;9.108;2023-02-28T04:39:11;1.13;;;1.07;;
21843;SDS011;11084;52.482;9.108;2023-02-28T04:41:37;0.50;;;0.50;;
21843;SDS011;11084;52.482;9.108;2023-02-28T04:44:03;1.00;;;1.00;;
21843;SDS011;11084;52.482;9.108;2023-02-28T04:46:29;0.87;;;0.87;;
21843;SDS011;11084;52.482;9.108;2023-02-28T04:48:55;0.60;;;0.60;;
21843;SDS011;11084;52.482;9.108;2023-02-28T04:51:22;0.73;;;0.73;;
21843;SDS011;11084;52.482;9.108;2023-02-28T04:53:48;1.83;;;1.03;;
21843;SDS011;11084;52.482;9.108;2023-02-28T04:56:15;4.40;;;1.00;;
21843;SDS011;11084;52.482;9.108;2023-02-28T04:58:43;2.03;;;0.93;;
21843;SDS011;11084;52.482;9.108;2023-02-28T05:01:20;0.90;;;0.90;;
21843;SDS011;11084;52.482;9.108;2023-02-28T05:03:55;2.97;;;1.87;;
21843;SDS011;11084;52.482;9.108;2023-02-28T05:06:24;1.93;;;1.63;;
21843;SDS011;11084;52.482;9.108;2023-02-28T05:08:53;2.03;;;0.83;;
21843;SDS011;11084;52.482;9.108;2023-02-28T05:11:23;1.30;;;1.20;;
21843;SDS011;11084;52.482;9.108;2023-02-28T05:14:00;1.37;;;1.27;;
21843;SDS011;11084;52.482;9.108;2023-02-28T05:16:31;1.83;;;1.40;;
21843;SDS011;11084;52.482;9.108;2023-02-28T05:18:58;0.60;;;0.60;;
21843;SDS011;11084;52.482;9.108;2023-02-28T05:21:28;0.77;;;0.77;;
21843;SDS011;11084;52.482;9.108;2023-02-28T05:24:01;2.23;;;0.77;;
21843;SDS011;11084;52.482;9.108;2023-02-28T05:26:31;0.93;;;0.90;;
21843;SDS011;11084;52.482;9.108;2023-02-28T05:29:01;1.50;;;0.70;;
21843;SDS011;11084;52.482;9.108;2023-02-28T05:31:27;0.80;;;0.80;;
21843;SDS011;11084;52.482;9.108;2023-02-28T05:33:53;1.40;;;1.30;;
21843;SDS011;11084;52.482;9.108;2023-02-28T05:36:20;0.93;;;0.93;;
21843;SDS011;11084;52.482;9.108;2023-02-28T05:38:47;1.43;;;1.33;;
21843;SDS011;11084;52.482;9.108;2023-02-28T05:41:14;1.00;;;0.90;;
21843;SDS011;11084;52.482;9.108;2023-02-28T05:43:44;1.43;;;1.27;;
21843;SDS011;11084;52.482;9.108;2023-02-28T05:46:10;0.80;;;0.80;;
21843;SDS011;11084;52.482;9.108;2023-02-28T05:48:38;0.80;;;0.80;;
21843;SDS011;11084;52.482;9.108;2023-02-28T05:51:06;0.70;;;0.70;;
21843;SDS011;11084;52.482;9.108;2023-02-28T05:53:34;0.50;;;0.50;;
21843;SDS011;11084;52.482;9.108;2023-02-28T05:56:00;0.73;;;0.70;;
21843;SDS011;11084;52.482;9.108;2023-02-28T05:58:27;1.03;;;0.67;;
21843;SDS011;11084;52.482;9.108;2023-02-28T06:00:59;1.60;;;1.27;;
21843;SDS011;11084;52.482;9.108;2023-02-28T06:03:27;0.57;;;0.57;;
21843;SDS011;11084;52.482;9.108;2023-02-28T06:05:53;0.60;;;0.60;;
21843;SDS011;11084;52.482;9.108;2023-02-28T06:08:19;0.40;;;0.40;;
21843;SDS011;11084;52.482;9.108;2023-02-28T06:10:45;1.23;;;1.13;;
21843;SDS011;11084;52.482;9.108;2023-02-28T06:13:11;1.07;;;0.93;;
21843;SDS011;11084;52.482;9.108;2023-02-28T06:15:38;5.10;;;1.60;;
21843;SDS011;11084;52.482;9.108;2023-02-28T06:18:04;1.60;;;1.33;;
21843;SDS011;11084;52.482;9.108;2023-02-28T06:20:30;1.13;;;1.03;;
21843;SDS011;11084;52.482;9.108;2023-02-28T06:22:56;3.80;;;1.43;;
21843;SDS011;11084;52.482;9.108;2023-02-28T06:25:26;0.73;;;0.73;;
21843;SDS011;11084;52.482;9.108;2023-02-28T06:27:53;4.03;;;0.93;;
21843;SDS011;11084;52.482;9.108;2023-02-28T06:30:20;1.50;;;1.30;;
21843;SDS011;11084;52.482;9.108;2023-02-28T06:32:51;1.67;;;1.33;;
21843;SDS011;11084;52.482;9.108;2023-02-28T06:35:19;1.37;;;1.27;;
21843;SDS011;11084;52.482;9.108;2023-02-28T06:37:45;0.80;;;0.80;;
21843;SDS011;11084;52.482;9.108;2023-02-28T06:40:12;1.00;;;1.00;;
21843;SDS011;11084;52.482;9.108;2023-02-28T06:42:39;1.90;;;1.10;;
21843;SDS011;11084;52.482;9.108;2023-02-28T06:45:05;1.53;;;1.43;;
21843;SDS011;11084;52.482;9.108;2023-02-28T06:47:35;1.40;;;1.30;;
21843;SDS011;11084;52.482;9.108;2023-02-28T06:50:03;2.33;;;1.43;;
21843;SDS011;11084;52.482;9.108;2023-02-28T06:52:29;4.33;;;1.90;;
21843;SDS011;11084;52.482;9.108;2023-02-28T06:54:55;4.37;;;2.33;;
21843;SDS011;11084;52.482;9.108;2023-02-28T06:57:29;4.47;;;2.70;;
21843;SDS011;11084;52.482;9.108;2023-02-28T06:59:57;4.03;;;2.63;;
21843;SDS011;11084;52.482;9.108;2023-02-28T07:02:25;7.83;;;3.50;;
21843;SDS011;11084;52.482;9.108;2023-02-28T07:04:52;4.30;;;2.57;;
21843;SDS011;11084;52.482;9.108;2023-02-28T07:07:18;4.60;;;2.50;;
21843;SDS011;11084;52.482;9.108;2023-02-28T07:09:44;6.33;;;2.80;;
21843;SDS011;11084;52.482;9.108;2023-02-28T07:12:10;7.53;;;2.17;;
21843;SDS011;11084;52.482;9.108;2023-02-28T07:14:36;8.50;;;2.47;;
21843;SDS011;11084;52.482;9.108;2023-02-28T07:17:02;4.00;;;1.77;;
21843;SDS011;11084;52.482;9.108;2023-02-28T07:19:28;5.57;;;2.73;;
21843;SDS011;11084;52.482;9.108;2023-02-28T07:21:55;3.13;;;1.97;;
21843;SDS011;11084;52.482;9.108;2023-02-28T07:24:20;1.90;;;1.53;;
21843;SDS011;11084;52.482;9.108;2023-02-28T07:26:48;7.50;;;2.17;;
21843;SDS011;11084;52.482;9.108;2023-02-28T07:29:14;4.43;;;1.90;;
21843;SDS011;11084;52.482;9.108;2023-02-28T07:31:40;3.53;;;2.03;;
21843;SDS011;11084;52.482;9.108;2023-02-28T07:34:06;5.43;;;2.53;;
21843;SDS011;11084;52.482;9.108;2023-02-28T07:36:32;4.97;;;2.13;;
21843;SDS011;11084;52.482;9.108;2023-02-28T07:38:59;6.47;;;2.10;;
21843;SDS011;11084;52.482;9.108;2023-02-28T07:41:25;2.70;;;2.13;;
21843;SDS011;11084;52.482;9.108;2023-02-28T07:43:53;2.87;;;2.20;;
21843;SDS011;11084;52.482;9.108;2023-02-28T07:46:21;4.13;;;2.13;;
21843;SDS011;11084;52.482;9.108;2023-02-28T07:48:48;9.47;;;2.73;;
21843;SDS011;11084;52.482;9.108;2023-02-28T07:51:15;4.33;;;2.20;;
21843;SDS011;11084;52.482;9.108;2023-02-28T07:53:41;3.10;;;2.40;;
21843;SDS011;11084;52.482;9.108;2023-02-28T07:56:07;3.10;;;2.30;;
21843;SDS011;11084;52.482;9.108;2023-02-28T07:58:35;4.73;;;1.97;;
21843;SDS011;11084;52.482;9.108;2023-02-28T08:01:06;3.07;;;2.30;;
21843;SDS011;11084;52.482;9.108;2023-02-28T08:03:34;3.03;;;1.80;;
21843;SDS011;11084;52.482;9.108;2023-02-28T08:06:02;4.97;;;1.97;;
21843;SDS011;11084;52.482;9.108;2023-02-28T08:08:30;4.53;;;2.53;;
21843;SDS011;11084;52.482;9.108;2023-02-28T08:11:00;4.90;;;2.17;;
21843;SDS011;11084;52.482;9.108;2023-02-28T08:13:29;3.80;;;2.00;;
21843;SDS011;11084;52.482;9.108;2023-02-28T08:15:55;4.13;;;1.80;;
21843;SDS011;11084;52.482;9.108;2023-02-28T08:18:22;3.30;;;2.30;;
21843;SDS011;11084;52.482;9.108;2023-02-28T08:20:54;1.80;;;1.70;;
21843;SDS011;11084;52.482;9.108;2023-02-28T08:23:22;2.30;;;1.87;;
21843;SDS011;11084;52.482;9.108;2023-02-28T08:25:55;3.20;;;2.17;;
21843;SDS011;11084;52.482;9.108;2023-02-28T08:28:25;6.07;;;2.03;;
21843;SDS011;11084;52.482;9.108;2023-02-28T08:30:51;3.30;;;1.77;;
21843;SDS011;11084;52.482;9.108;2023-02-28T08:33:17;2.20;;;1.70;;
21843;SDS011;11084;52.482;9.108;2023-02-28T08:35:43;3.93;;;2.40;;
21843;SDS011;11084;52.482;9.108;2023-02-28T08:38:09;1.80;;;1.53;;
21843;SDS011;11084;52.482;9.108;2023-02-28T08:40:35;2.70;;;1.83;;
21843;SDS011;11084;52.482;9.108;2023-02-28T08:43:02;2.70;;;1.80;;
21843;SDS011;11084;52.482;9.108;2023-02-28T08:45:29;3.57;;;1.57;;
21843;SDS011;11084;52.482;9.108;2023-02-28T08:47:55;4.30;;;2.27;;
21843;SDS011;11084;52.482;9.108;2023-02-28T08:50:22;3.50;;;2.03;;
21843;SDS011;11084;52.482;9.108;2023-02-28T08:52:48;4.87;;;2.00;;
21843;SDS011;11084;52.482;9.108;2023-02-28T08:55:14;2.47;;;1.70;;
21843;SDS011;11084;52.482;9.108;2023-02-28T08:57:40;4.23;;;2.20;;
21843;SDS011;11084;52.482;9.108;2023-02-28T09:00:06;2.47;;;2.03;;
21843;SDS011;11084;52.482;9.108;2023-02-28T09:02:33;4.80;;;2.87;;
21843;SDS011;11084;52.482;9.108;2023-02-28T09:05:02;6.17;;;2.23;;
21843;SDS011;11084;52.482;9.108;2023-02-28T09:07:29;3.77;;;2.00;;
21843;SDS011;11084;52.482;9.108;2023-02-28T09:09:55;4.70;;;2.13;;
21843;SDS011;11084;52.482;9.108;2023-02-28T09:12:26;2.90;;;2.17;;
21843;SDS011;11084;52.482;9.108;2023-02-28T09:14:53;8.23;;;2.07;;
21843;SDS011;11084;52.482;9.108;2023-02-28T09:17:20;2.60;;;1.83;;
21843;SDS011;11084;52.482;9.108;2023-02-28T09:19:47;3.13;;;2.13;;
21843;SDS011;11084;52.482;9.108;2023-02-28T09:22:14;3.00;;;2.13;;
21843;SDS011;11084;52.482;9.108;2023-02-28T09:24:41;2.80;;;1.87;;
21843;SDS011;11084;52.482;9.108;2023-02-28T09:27:07;3.07;;;2.00;;
21843;SDS011;11084;52.482;9.108;2023-02-28T09:29:33;3.73;;;2.00;;
21843;SDS011;11084;52.482;9.108;2023-02-28T09:32:00;2.60;;;1.97;;
21843;SDS011;11084;52.482;9.108;2023-02-28T09:34:26;2.40;;;1.80;;
21843;SDS011;11084;52.482;9.108;2023-02-28T09:36:58;2.37;;;1.83;;
21843;SDS011;11084;52.482;9.108;2023-02-28T09:39:24;3.10;;;1.73;;
21843;SDS011;11084;52.482;9.108;2023-02-28T09:41:52;9.23;;;2.10;;
21843;SDS011;11084;52.482;9.108;2023-02-28T09:44:24;2.17;;;1.83;;
21843;SDS011;11084;52.482;9.108;2023-02-28T09:49:41;1.87;;;1.37;;
21843;SDS011;11084;52.482;9.108;2023-02-28T09:52:21;2.13;;;1.57;;
21843;SDS011;11084;52.482;9.108;2023-02-28T09:55:18;2.70;;;1.90;;
21843;SDS011;11084;52.482;9.108;2023-02-28T09:57:53;3.10;;;2.40;;
21843;SDS011;11084;52.482;9.108;2023-02-28T10:00:24;3.20;;;2.27;;
21843;SDS011;11084;52.482;9.108;2023-02-28T10:06:46;3.27;;;1.87;;
21843;SDS011;11084;52.482;9.108;2023-02-28T10:09:26;2.20;;;1.40;;
21843;SDS011;11084;52.482;9.108;2023-02-28T10:12:00;1.73;;;1.20;;
21843;SDS011;11084;52.482;9.108;2023-02-28T10:14:31;1.50;;;1.40;;
21843;SDS011;11084;52.482;9.108;2023-02-28T10:19:39;1.63;;;1.33;;
21843;SDS011;11084;52.482;9.108;2023-02-28T10:22:32;1.67;;;1.00;;
21843;SDS011;11084;52.482;9.108;2023-02-28T10:25:16;2.13;;;1.00;;
21843;SDS011;11084;52.482;9.108;2023-02-28T10:27:46;2.77;;;1.10;;
21843;SDS011;11084;52.482;9.108;2023-02-28T10:30:15;2.67;;;1.33;;
21843;SDS011;11084;52.482;9.108;2023-02-28T10:32:43;2.37;;;1.20;;
21843;SDS011;11084;52.482;9.108;2023-02-28T10:35:25;2.57;;;1.50;;
21843;SDS011;11084;52.482;9.108;2023-02-28T10:37:56;1.70;;;1.33;;
21843;SDS011;11084;52.482;9.108;2023-02-28T10:42:58;2.83;;;1.77;;
21843;SDS011;11084;52.482;9.108;2023-02-28T10:45:28;1.27;;;0.73;;
21843;SDS011;11084;52.482;9.108;2023-02-28T10:56:34;3.43;;;0.90;;
21843;SDS011;11084;52.482;9.108;2023-02-28T11:01:18;3.40;;;1.03;;
21843;SDS011;11084;52.482;9.108;2023-02-28T11:04:18;1.50;;;0.70;;
21843;SDS011;11084;52.482;9.108;2023-02-28T11:06:48;0.73;;;0.73;;
21843;SDS011;11084;52.482;9.108;2023-02-28T11:09:44;1.77;;;1.07;;
21843;SDS011;11084;52.482;9.108;2023-02-28T11:15:32;1.43;;;0.90;;
21843;SDS011;11084;52.482;9.108;2023-02-28T11:18:06;1.23;;;0.70;;
21843;SDS011;11084;52.482;9.108;2023-02-28T11:20:43;1.23;;;0.90;;
21843;SDS011;11084;52.482;9.108;2023-02-28T11:23:18;8.40;;;1.00;;
21843;SDS011;11084;52.482;9.108;2023-02-28T11:25:47;3.57;;;1.07;;
21843;SDS011;11084;52.482;9.108;2023-02-28T11:28:32;1.57;;;1.00;;
21843;SDS011;11084;52.482;9.108;2023-02-28T11:33:43;3.07;;;1.00;;
21843;SDS011;11084;52.482;9.108;2023-02-28T11:38:49;2.23;;;1.07;;
21843;SDS011;11084;52.482;9.108;2023-02-28T11:41:21;1.90;;;1.23;;
21843;SDS011;11084;52.482;9.108;2023-02-28T11:44:03;0.93;;;0.70;;
21843;SDS011;11084;52.482;9.108;2023-02-28T11:47:03;1.23;;;0.80;;
21843;SDS011;11084;52.482;9.108;2023-02-28T11:53:10;2.67;;;1.23;;
21843;SDS011;11084;52.482;9.108;2023-02-28T12:02:20;1.63;;;1.03;;
21843;SDS011;11084;52.482;9.108;2023-02-28T12:05:02;2.13;;;1.00;;
21843;SDS011;11084;52.482;9.108;2023-02-28T12:07:45;5.90;;;0.90;;
21843;SDS011;11084;52.482;9.108;2023-02-28T12:10:50;1.90;;;0.80;;
21843;SDS011;11084;52.482;9.108;2023-02-28T12:13:29;0.57;;;0.50;;
21843;SDS011;11084;52.482;9.108;2023-02-28T12:27:45;3.80;;;1.10;;
21843;SDS011;11084;52.482;9.108;2023-02-28T12:30:24;1.00;;;0.70;;
21843;SDS011;11084;52.482;9.108;2023-02-28T12:32:56;0.60;;;0.60;;
21843;SDS011;11084;52.482;9.108;2023-02-28T12:35:34;2.10;;;1.17;;
21843;SDS011;11084;52.482;9.108;2023-02-28T12:38:14;1.17;;;0.90;;
21843;SDS011;11084;52.482;9.108;2023-02-28T12:40:50;1.20;;;1.10;;
21843;SDS011;11084;52.482;9.108;2023-02-28T12:43:21;0.97;;;0.80;;
21843;SDS011;11084;52.482;9.108;2023-02-28T12:45:56;1.40;;;0.80;;
21843;SDS011;11084;52.482;9.108;2023-02-28T12:48:31;2.30;;;1.00;;
21843;SDS011;11084;52.482;9.108;2023-02-28T12:51:11;0.60;;;0.60;;
21843;SDS011;11084;52.482;9.108;2023-02-28T12:53:43;1.97;;;0.87;;
21843;SDS011;11084;52.482;9.108;2023-02-28T12:59:36;0.50;;;0.50;;
21843;SDS011;11084;52.482;9.108;2023-02-28T13:11:01;2.80;;;1.07;;
21843;SDS011;11084;52.482;9.108;2023-02-28T13:13:25;0.87;;;0.80;;
21843;SDS011;11084;52.482;9.108;2023-02-28T13:15:58;5.70;;;1.07;;
21843;SDS011;11084;52.482;9.108;2023-02-28T13:18:29;0.87;;;0.67;;
21843;SDS011;11084;52.482;9.108;2023-02-28T13:21:07;1.07;;;0.57;;
21843;SDS011;11084;52.482;9.108;2023-02-28T13:29:00;0.90;;;0.80;;
21843;SDS011;11084;52.482;9.108;2023-02-28T13:34:40;1.33;;;0.67;;
21843;SDS011;11084;52.482;9.108;2023-02-28T13:50:26;0.53;;;0.47;;
21843;SDS011;11084;52.482;9.108;2023-02-28T13:55:46;1.20;;;0.67;;
21843;SDS011;11084;52.482;9.108;2023-02-28T14:04:48;3.37;;;0.90;;
21843;SDS011;11084;52.482;9.108;2023-02-28T14:07:26;4.57;;;1.03;;
21843;SDS011;11084;52.482;9.108;2023-02-28T14:10:00;1.07;;;0.60;;
21843;SDS011;11084;52.482;9.108;2023-02-28T14:15:58;0.70;;;0.67;;
21843;SDS011;11084;52.482;9.108;2023-02-28T14:18:33;0.70;;;0.70;;
21843;SDS011;11084;52.482;9.108;2023-02-28T14:23:56;2.33;;;0.60;;
21843;SDS011;11084;52.482;9.108;2023-02-28T14:36:16;1.97;;;0.80;;
21843;SDS011;11084;52.482;9.108;2023-02-28T14:38:57;2.00;;;0.90;;
21843;SDS011;11084;52.482;9.108;2023-02-28T14:44:21;1.27;;;0.80;;
21843;SDS011;11084;52.482;9.108;2023-02-28T14:46:53;0.50;;;0.50;;
21843;SDS011;11084;52.482;9.108;2023-02-28T14:49:42;1.00;;;0.90;;
21843;SDS011;11084;52.482;9.108;2023-02-28T14:52:31;5.40;;;0.83;;
21843;SDS011;11084;52.482;9.108;2023-02-28T14:55:03;2.53;;;0.50;;
21843;SDS011;11084;52.482;9.108;2023-02-28T14:57:41;0.70;;;0.70;;
21843;SDS011;11084;52.482;9.108;2023-02-28T15:02:52;0.50;;;0.50;;
21843;SDS011;11084;52.482;9.108;2023-02-28T15:05:41;1.33;;;0.90;;
21843;SDS011;11084;52.482;9.108;2023-02-28T15:08:12;1.43;;;1.33;;
21843;SDS011;11084;52.482;9.108;2023-02-28T15:10:42;0.60;;;0.60;;
21843;SDS011;11084;52.482;9.108;2023-02-28T15:13:50;1.50;;;0.73;;
21843;SDS011;11084;52.482;9.108;2023-02-28T15:16:24;2.00;;;1.03;;
21843;SDS011;11084;52.482;9.108;2023-02-28T15:18:57;0.97;;;0.70;;
21843;SDS011;11084;52.482;9.108;2023-02-28T15:21:43;0.80;;;0.80;;
21843;SDS011;11084;52.482;9.108;2023-02-28T15:27:11;3.63;;;0.77;;
21843;SDS011;11084;52.482;9.108;2023-02-28T15:29:54;1.23;;;0.73;;
21843;SDS011;11084;52.482;9.108;2023-02-28T15:32:28;0.70;;;0.70;;
21843;SDS011;11084;52.482;9.108;2023-02-28T15:34:56;1.63;;;0.73;;
21843;SDS011;11084;52.482;9.108;2023-02-28T15:40:13;0.90;;;0.67;;
21843;SDS011;11084;52.482;9.108;2023-02-28T15:43:03;2.00;;;0.90;;
21843;SDS011;11084;52.482;9.108;2023-02-28T15:45:47;1.10;;;1.00;;
21843;SDS011;11084;52.482;9.108;2023-02-28T15:48:24;1.63;;;0.87;;
21843;SDS011;11084;52.482;9.108;2023-02-28T15:51:06;0.83;;;0.77;;
21843;SDS011;11084;52.482;9.108;2023-02-28T15:53:38;0.87;;;0.80;;
21843;SDS011;11084;52.482;9.108;2023-02-28T15:56:22;0.70;;;0.70;;
21843;SDS011;11084;52.482;9.108;2023-02-28T15:58:58;5.60;;;1.20;;
21843;SDS011;11084;52.482;9.108;2023-02-28T16:01:43;2.50;;;1.27;;
21843;SDS011;11084;52.482;9.108;2023-02-28T16:04:17;5.10;;;1.07;;
21843;SDS011;11084;52.482;9.108;2023-02-28T16:06:53;2.17;;;1.00;;
21843;SDS011;11084;52.482;9.108;2023-02-28T16:09:28;0.97;;;0.87;;
21843;SDS011;11084;52.482;9.108;2023-02-28T16:11:56;2.73;;;1.10;;
21843;SDS011;11084;52.482;9.108;2023-02-28T16:14:27;0.80;;;0.80;;
21843;SDS011;11084;52.482;9.108;2023-02-28T16:17:03;1.00;;;0.67;;
21843;SDS011;11084;52.482;9.108;2023-02-28T16:19:36;2.83;;;0.90;;
21843;SDS011;11084;52.482;9.108;2023-02-28T16:22:02;1.57;;;1.00;;
21843;SDS011;11084;52.482;9.108;2023-02-28T16:24:28;0.83;;;0.83;;
21843;SDS011;11084;52.482;9.108;2023-02-28T16:26:54;1.10;;;0.80;;
21843;SDS011;11084;52.482;9.108;2023-02-28T16:29:28;1.03;;;0.90;;
21843;SDS011;11084;52.482;9.108;2023-02-28T16:31:57;2.17;;;0.83;;
21843;SDS011;11084;52.482;9.108;2023-02-28T16:34:25;1.67;;;1.30;;
21843;SDS011;11084;52.482;9.108;2023-02-28T16:36:51;3.20;;;1.00;;
21843;SDS011;11084;52.482;9.108;2023-02-28T16:39:18;1.87;;;0.90;;
21843;SDS011;11084;52.482;9.108;2023-02-28T16:41:48;1.17;;;0.70;;
21843;SDS011;11084;52.482;9.108;2023-02-28T16:44:29;1.30;;;0.80;;
21843;SDS011;11084;52.482;9.108;2023-02-28T16:47:00;10.53;;;0.93;;
21843;SDS011;11084;52.482;9.108;2023-02-28T16:49:28;0.80;;;0.80;;
21843;SDS011;11084;52.482;9.108;2023-02-28T16:51:54;1.33;;;0.50;;
21843;SDS011;11084;52.482;9.108;2023-02-28T16:54:20;0.87;;;0.83;;
21843;SDS011;11084;52.482;9.108;2023-02-28T16:56:49;3.37;;;0.90;;
21843;SDS011;11084;52.482;9.108;2023-02-28T16:59:17;0.80;;;0.80;;
21843;SDS011;11084;52.482;9.108;2023-02-28T17:01:48;1.57;;;0.80;;
21843;SDS011;11084;52.482;9.108;2023-02-28T17:04:17;4.73;;;1.00;;
21843;SDS011;11084;52.482;9.108;2023-02-28T17:06:43;3.90;;;1.27;;
21843;SDS011;11084;52.482;9.108;2023-02-28T17:09:15;3.00;;;0.80;;
21843;SDS011;11084;52.482;9.108;2023-02-28T17:11:44;0.70;;;0.70;;
21843;SDS011;11084;52.482;9.108;2023-02-28T17:14:12;0.77;;;0.77;;
21843;SDS011;11084;52.482;9.108;2023-02-28T17:16:40;0.70;;;0.70;;
21843;SDS011;11084;52.482;9.108;2023-02-28T17:19:11;7.30;;;0.90;;
21843;SDS011;11084;52.482;9.108;2023-02-28T17:21:40;0.77;;;0.77;;
21843;SDS011;11084;52.482;9.108;2023-02-28T17:24:07;0.60;;;0.60;;
21843;SDS011;11084;52.482;9.108;2023-02-28T17:26:38;0.63;;;0.63;;
21843;SDS011;11084;52.482;9.108;2023-02-28T17:29:11;1.70;;;1.03;;
21843;SDS011;11084;52.482;9.108;2023-02-28T17:31:44;0.87;;;0.73;;
21843;SDS011;11084;52.482;9.108;2023-02-28T17:34:10;1.67;;;0.90;;
21843;SDS011;11084;52.482;9.108;2023-02-28T17:36:43;0.57;;;0.57;;
21843;SDS011;11084;52.482;9.108;2023-02-28T17:39:11;4.43;;;1.03;;
21843;SDS011;11084;52.482;9.108;2023-02-28T17:41:40;7.87;;;0.90;;
21843;SDS011;11084;52.482;9.108;2023-02-28T17:44:14;3.00;;;1.53;;
21843;SDS011;11084;52.482;9.108;2023-02-28T17:46:46;4.67;;;1.10;;
21843;SDS011;11084;52.482;9.108;2023-02-28T17:49:18;2.10;;;1.03;;
21843;SDS011;11084;52.482;9.108;2023-02-28T17:51:51;9.10;;;1.10;;
21843;SDS011;11084;52.482;9.108;2023-02-28T17:54:23;0.83;;;0.80;;